createdAt,value
2023-01-20T00:01:40.227Z,3.12
2023-01-20T00:04:07.822Z,3.07
2023-01-20T00:06:35.431Z,3.14
2023-01-20T00:09:05.176Z,2.93
2023-01-20T00:11:32.711Z,2.85
2023-01-20T00:14:01.478Z,2.79
2023-01-20T00:16:29.748Z,2.72
2023-01-20T00:18:58.836Z,2.65
2023-01-20T00:21:26.341Z,2.74
2023-01-20T00:23:53.683Z,2.82
2023-01-20T00:26:22.885Z,2.73
2023-01-20T00:28:51.005Z,2.83
2023-01-20T00:31:20.208Z,2.67
2023-01-20T00:33:48.985Z,2.99
2023-01-20T00:36:19.719Z,2.66
2023-01-20T00:38:47.367Z,2.75
2023-01-20T00:41:16.319Z,2.77
2023-01-20T00:43:44.226Z,2.88
2023-01-20T00:46:12.096Z,2.88
2023-01-20T00:48:39.943Z,2.89
2023-01-20T00:51:08.363Z,2.86
2023-01-20T00:53:37.610Z,2.81
2023-01-20T00:56:06.146Z,2.87
2023-01-20T00:58:33.896Z,2.91
2023-01-20T01:01:02.272Z,2.87
2023-01-20T01:03:29.960Z,2.84
2023-01-20T01:06:07.551Z,2.88
2023-01-20T01:08:37.265Z,2.93
2023-01-20T01:11:05.780Z,2.95
2023-01-20T01:13:34.091Z,2.87
2023-01-20T01:16:02.329Z,2.70
2023-01-20T01:18:29.948Z,2.76
2023-01-20T01:20:57.563Z,2.84
2023-01-20T01:23:25.159Z,2.95
2023-01-20T01:25:54.002Z,2.81
2023-01-20T01:28:21.436Z,2.92
2023-01-20T01:30:48.863Z,2.97
2023-01-20T01:33:16.298Z,2.98
2023-01-20T01:35:43.735Z,2.96
2023-01-20T01:38:11.241Z,2.96
2023-01-20T01:40:38.698Z,2.95
2023-01-20T01:43:12.395Z,2.95
2023-01-20T01:45:40.104Z,2.95
2023-01-20T01:48:10.206Z,2.92
2023-01-20T01:50:41.042Z,2.96
2023-01-20T01:53:09.395Z,2.84
2023-01-20T01:55:40.832Z,2.89
2023-01-20T01:58:12.891Z,2.91
2023-01-20T02:00:40.854Z,2.86
2023-01-20T02:03:08.513Z,3.02
2023-01-20T02:05:37.676Z,2.97
2023-01-20T02:08:05.631Z,3.00
2023-01-20T02:10:33.016Z,3.03
2023-01-20T02:13:00.997Z,2.93
2023-01-20T02:15:32.713Z,2.98
2023-01-20T02:18:12.310Z,2.84
2023-01-20T02:21:06.794Z,2.96
2023-01-20T02:23:48.031Z,2.88
2023-01-20T02:26:42.506Z,2.94
2023-01-20T02:29:24.544Z,2.72
2023-01-20T02:32:08.947Z,2.83
2023-01-20T02:34:41.049Z,2.80
2023-01-20T02:37:13.329Z,2.91
2023-01-20T02:39:43.854Z,2.86
2023-01-20T02:42:12.656Z,3.03
2023-01-20T02:44:42.991Z,2.93
2023-01-20T02:47:15.281Z,2.94
2023-01-20T02:49:47.772Z,2.76
2023-01-20T02:52:18.207Z,2.76
2023-01-20T02:54:49.936Z,2.87
2023-01-20T02:57:20.034Z,2.81
2023-01-20T02:59:51.499Z,2.77
2023-01-20T03:02:22.418Z,2.72
2023-01-20T03:04:52.888Z,2.78
2023-01-20T03:07:23.666Z,2.78
2023-01-20T03:09:55.266Z,2.74
2023-01-20T03:12:26.226Z,2.74
2023-01-20T03:14:53.895Z,2.64
2023-01-20T03:17:23.165Z,2.58
2023-01-20T03:19:50.773Z,2.66
2023-01-20T03:22:18.411Z,2.75
2023-01-20T03:24:47.407Z,2.64
2023-01-20T03:27:15.166Z,2.42
2023-01-20T03:29:42.779Z,2.68
2023-01-20T03:32:11.341Z,2.66
2023-01-20T03:34:42.071Z,2.46
2023-01-20T03:37:10.343Z,2.66
2023-01-20T03:39:39.763Z,2.50
2023-01-20T03:42:10.100Z,2.52
2023-01-20T03:44:55.615Z,2.55
2023-01-20T03:47:31.585Z,2.78
2023-01-20T03:50:08.245Z,2.52
2023-01-20T03:52:47.629Z,2.52
2023-01-20T03:55:17.941Z,2.46
2023-01-20T03:57:50.097Z,2.62
2023-01-20T04:00:19.310Z,2.73
2023-01-20T04:02:46.823Z,2.62
2023-01-20T04:05:15.997Z,2.79
2023-01-20T04:07:44.418Z,2.60
2023-01-20T04:10:14.351Z,2.77
2023-01-20T04:12:41.984Z,2.49
2023-01-20T04:15:11.486Z,2.78
2023-01-20T04:17:39.100Z,2.79
2023-01-20T04:20:10.349Z,2.70
2023-01-20T04:22:44.004Z,2.62
2023-01-20T04:25:15.776Z,2.73
2023-01-20T04:27:43.563Z,2.61
2023-01-20T04:30:13.427Z,2.49
2023-01-20T04:32:41.029Z,2.69
2023-01-20T04:35:10.176Z,2.61
2023-01-20T04:37:37.712Z,2.82
2023-01-20T04:40:07.842Z,2.70
2023-01-20T04:42:35.428Z,2.59
2023-01-20T04:45:03.098Z,2.71
2023-01-20T04:47:30.979Z,2.39
2023-01-20T04:49:58.506Z,2.57
2023-01-20T04:52:26.201Z,2.64
2023-01-20T04:54:54.003Z,2.66
2023-01-20T04:57:24.225Z,2.51
2023-01-20T04:59:51.761Z,2.68
2023-01-20T05:02:19.278Z,2.38
2023-01-20T05:04:46.873Z,2.59
2023-01-20T05:07:14.328Z,2.33
2023-01-20T05:09:41.737Z,2.51
2023-01-20T05:12:09.190Z,2.55
2023-01-20T05:14:38.016Z,2.47
2023-01-20T05:17:05.506Z,2.64
2023-01-20T05:19:33.032Z,2.41
2023-01-20T05:22:00.827Z,2.54
2023-01-20T05:24:28.471Z,2.55
2023-01-20T05:26:55.931Z,2.54
2023-01-20T05:29:23.725Z,2.79
2023-01-20T05:31:52.511Z,2.49
2023-01-20T05:34:20.012Z,2.51
2023-01-20T05:36:47.385Z,2.51
2023-01-20T05:39:14.771Z,2.42
2023-01-20T05:41:42.246Z,2.77
2023-01-20T05:44:09.927Z,2.77
2023-01-20T05:46:37.419Z,2.70
2023-01-20T05:49:06.393Z,2.49
2023-01-20T05:51:33.904Z,2.81
2023-01-20T05:54:03.178Z,2.79
2023-01-20T05:56:30.603Z,2.61
2023-01-20T05:58:58.086Z,2.77
2023-01-20T06:01:25.608Z,2.68
2023-01-20T06:03:53.202Z,2.80
2023-01-20T06:06:22.072Z,2.76
2023-01-20T06:08:49.628Z,2.70
2023-01-20T06:11:32.073Z,2.63
2023-01-20T06:13:59.445Z,2.90
2023-01-20T06:16:26.832Z,2.83
2023-01-20T06:18:54.258Z,2.45
2023-01-20T06:21:23.407Z,2.51
2023-01-20T06:23:50.926Z,2.63
2023-01-20T06:26:20.760Z,2.50
2023-01-20T06:28:48.149Z,2.35
2023-01-20T06:31:16.928Z,2.60
2023-01-20T06:33:45.135Z,2.67
2023-01-20T06:36:13.530Z,2.49
2023-01-20T06:38:44.290Z,2.65
2023-01-20T06:41:12.751Z,2.56
2023-01-20T06:43:41.807Z,2.50
2023-01-20T06:46:12.401Z,2.48
2023-01-20T06:48:40.026Z,2.47
2023-01-20T06:51:10.069Z,2.45
2023-01-20T06:53:37.789Z,2.49
2023-01-20T06:56:07.617Z,2.66
2023-01-20T06:58:35.073Z,2.58
2023-01-20T07:01:08.600Z,2.57
2023-01-20T07:03:36.218Z,2.76
2023-01-20T07:06:06.536Z,2.26
2023-01-20T07:08:33.937Z,2.12
2023-01-20T07:11:04.005Z,2.19
2023-01-20T07:13:32.679Z,2.15
2023-01-20T07:16:00.124Z,2.49
2023-01-20T07:18:27.537Z,2.35
2023-01-20T07:20:55.411Z,2.50
2023-01-20T07:23:22.872Z,2.52
2023-01-20T07:25:58.002Z,2.48
2023-01-20T07:28:25.364Z,2.65
2023-01-20T07:30:54.196Z,2.79
2023-01-20T07:33:21.574Z,2.80
2023-01-20T07:35:52.424Z,2.84
2023-01-20T07:38:19.874Z,2.80
2023-01-20T07:40:47.289Z,2.68
2023-01-20T07:43:14.727Z,2.79
2023-01-20T07:45:42.251Z,2.82
2023-01-20T07:48:11.021Z,2.45
2023-01-20T07:50:38.736Z,2.45
2023-01-20T07:53:07.053Z,2.59
2023-01-20T07:55:34.675Z,2.42
2023-01-20T07:58:02.555Z,2.66
2023-01-20T08:00:29.940Z,2.54
2023-01-20T08:02:57.272Z,2.34
2023-01-20T08:05:25.957Z,2.37
2023-01-20T08:07:53.541Z,2.32
2023-01-20T08:10:20.889Z,2.27
2023-01-20T08:12:48.234Z,2.50
2023-01-20T08:15:16.161Z,2.72
2023-01-20T08:17:43.862Z,2.66
2023-01-20T08:20:12.152Z,2.84
2023-01-20T08:22:40.836Z,2.77
2023-01-20T08:25:09.051Z,2.66
2023-01-20T08:27:36.462Z,2.70
2023-01-20T08:30:04.177Z,2.79
2023-01-20T08:32:31.807Z,2.64
2023-01-20T08:34:59.289Z,2.67
2023-01-20T08:37:26.797Z,2.62
2023-01-20T08:39:55.556Z,2.44
2023-01-20T08:42:22.906Z,2.58
2023-01-20T08:44:52.976Z,2.64
2023-01-20T08:47:20.335Z,2.74
2023-01-20T08:49:47.958Z,2.63
2023-01-20T08:52:15.479Z,2.71
2023-01-20T08:54:42.902Z,2.61
2023-01-20T08:57:11.682Z,2.56
2023-01-20T08:59:39.211Z,2.62
2023-01-20T09:02:06.613Z,2.63
2023-01-20T09:04:36.997Z,2.58
2023-01-20T09:07:05.120Z,2.34
2023-01-20T09:09:32.477Z,2.35
2023-01-20T09:11:59.825Z,2.53
2023-01-20T09:14:28.510Z,2.75
2023-01-20T09:16:55.835Z,2.64
2023-01-20T09:19:23.378Z,2.55
2023-01-20T09:21:50.833Z,2.69
2023-01-20T09:24:18.238Z,2.59
2023-01-20T09:26:45.639Z,2.62
2023-01-20T09:29:14.386Z,2.71
2023-01-20T09:31:45.248Z,2.77
2023-01-20T09:34:15.424Z,2.59
2023-01-20T09:36:42.895Z,2.78
2023-01-20T09:39:27.767Z,2.75
2023-01-20T09:42:13.061Z,2.70
2023-01-20T09:44:48.093Z,2.69
2023-01-20T09:47:31.923Z,2.69
2023-01-20T09:50:37.265Z,2.82
2023-01-20T09:53:08.003Z,2.58
2023-01-20T09:55:41.942Z,2.77
2023-01-20T09:58:17.143Z,2.72
2023-01-20T10:00:48.887Z,2.55
2023-01-20T10:03:21.276Z,2.64
2023-01-20T10:05:50.893Z,2.75
2023-01-20T10:08:20.883Z,2.76
2023-01-20T10:10:51.519Z,2.79
2023-01-20T10:13:21.370Z,2.71
2023-01-20T10:15:51.164Z,2.82
2023-01-20T10:18:25.104Z,2.87
2023-01-20T10:20:57.818Z,2.88
2023-01-20T10:23:29.199Z,2.91
2023-01-20T10:26:01.411Z,2.89
2023-01-20T10:28:30.036Z,2.94
2023-01-20T10:30:59.570Z,2.95
2023-01-20T10:33:31.025Z,2.85
2023-01-20T10:36:00.822Z,2.94
2023-01-20T10:38:37.258Z,2.99
2023-01-20T10:41:09.022Z,3.08
2023-01-20T10:43:36.438Z,2.99
2023-01-20T10:46:17.793Z,2.98
2023-01-20T10:49:05.276Z,3.01
2023-01-20T10:51:36.375Z,3.18
2023-01-20T10:54:13.643Z,3.22
2023-01-20T10:56:43.914Z,3.12
2023-01-20T10:59:14.508Z,3.10
2023-01-20T11:01:43.104Z,3.20
2023-01-20T11:04:18.261Z,3.16
2023-01-20T11:06:47.014Z,3.08
2023-01-20T11:09:21.493Z,3.23
2023-01-20T11:11:49.328Z,3.26
2023-01-20T11:14:16.806Z,3.32
2023-01-20T11:16:46.636Z,3.34
2023-01-20T11:19:14.027Z,3.30
2023-01-20T11:21:42.753Z,3.23
2023-01-20T11:24:33.027Z,3.32
2023-01-20T11:27:04.874Z,3.28
2023-01-20T11:29:35.496Z,3.35
2023-01-20T11:32:03.195Z,3.40
2023-01-20T11:34:31.759Z,3.35
2023-01-20T11:40:31.049Z,3.33
2023-01-20T11:42:58.472Z,3.37
2023-01-20T11:45:32.394Z,3.23
2023-01-20T11:48:03.294Z,3.30
2023-01-20T11:50:33.324Z,3.44
2023-01-20T11:53:21.865Z,3.40
2023-01-20T11:55:52.898Z,3.42
2023-01-20T11:58:21.936Z,3.26
2023-01-20T12:00:51.178Z,3.30
2023-01-20T12:03:51.780Z,3.35
2023-01-20T12:06:22.002Z,3.38
2023-01-20T12:08:51.465Z,3.40
2023-01-20T12:11:24.616Z,3.41
2023-01-20T12:14:19.408Z,3.41
2023-01-20T12:16:48.098Z,3.37
2023-01-20T12:19:17.585Z,3.40
2023-01-20T12:21:48.416Z,3.47
2023-01-20T12:24:21.002Z,3.51
2023-01-20T12:26:50.711Z,3.59
2023-01-20T12:29:21.249Z,3.51
2023-01-20T12:31:49.179Z,3.53
2023-01-20T12:34:18.498Z,3.55
2023-01-20T12:37:03.969Z,3.56
2023-01-20T12:39:46.186Z,3.50
2023-01-20T12:42:50.209Z,3.56
2023-01-20T12:45:27.617Z,3.45
2023-01-20T12:48:05.212Z,3.54
2023-01-20T12:50:41.904Z,3.53
2023-01-20T12:53:17.240Z,3.69
2023-01-20T12:55:56.734Z,3.66
2023-01-20T12:58:39.516Z,3.62
2023-01-20T13:01:38.432Z,3.69
2023-01-20T13:04:47.377Z,3.65
2023-01-20T13:07:39.758Z,3.70
2023-01-20T13:10:22.996Z,3.64
2023-01-20T13:12:55.290Z,3.52
2023-01-20T13:15:28.912Z,3.50
2023-01-20T13:18:07.929Z,3.64
2023-01-20T13:20:36.050Z,3.60
2023-01-20T13:23:05.409Z,3.66
2023-01-20T13:25:33.066Z,3.63
2023-01-20T13:28:00.795Z,3.67
2023-01-20T13:30:43.895Z,3.59
2023-01-20T13:33:17.749Z,3.69
2023-01-20T13:35:47.300Z,3.66
2023-01-20T13:38:19.798Z,3.65
2023-01-20T13:40:50.142Z,3.66
2023-01-20T13:43:55.341Z,3.74
2023-01-20T13:46:46.067Z,3.76
2023-01-20T13:49:29.250Z,3.74
2023-01-20T13:51:56.664Z,3.77
2023-01-20T13:54:38.031Z,3.69
2023-01-20T13:57:38.571Z,3.74
2023-01-20T14:00:17.290Z,3.65
2023-01-20T14:02:47.085Z,3.65
2023-01-20T14:05:26.353Z,3.66
2023-01-20T14:07:53.734Z,3.66
2023-01-20T14:10:21.143Z,3.61
2023-01-20T14:12:48.569Z,3.68
2023-01-20T14:15:27.422Z,3.70
2023-01-20T14:17:57.106Z,3.60
2023-01-20T14:20:26.414Z,3.62
2023-01-20T14:22:53.864Z,3.62
2023-01-20T14:25:23.482Z,3.64
2023-01-20T14:27:51.043Z,3.66
2023-01-20T14:30:22.208Z,3.70
2023-01-20T14:32:50.219Z,3.69
2023-01-20T14:35:23.846Z,3.70
2023-01-20T14:37:52.066Z,3.68
2023-01-20T14:40:23.941Z,3.71
2023-01-20T14:42:59.509Z,3.62
2023-01-20T14:45:29.255Z,3.68
2023-01-20T14:47:57.406Z,3.71
2023-01-20T14:50:26.513Z,3.66
2023-01-20T14:52:53.965Z,3.71
2023-01-20T14:55:31.430Z,3.70
2023-01-20T14:57:59.451Z,3.70
2023-01-20T15:00:28.506Z,3.69
2023-01-20T15:03:11.096Z,3.66
2023-01-20T15:05:42.011Z,3.63
2023-01-20T15:08:24.420Z,3.65
2023-01-20T15:11:21.501Z,3.67
2023-01-20T15:14:08.531Z,3.65
2023-01-20T15:16:49.753Z,3.62
2023-01-20T15:19:32.827Z,3.64
2023-01-20T15:22:22.050Z,3.67
2023-01-20T15:24:50.464Z,3.67
2023-01-20T15:27:24.795Z,3.60
2023-01-20T15:30:24.101Z,3.58
2023-01-20T15:32:52.262Z,3.56
2023-01-20T15:35:22.735Z,3.64
2023-01-20T15:37:51.527Z,3.59
2023-01-20T15:40:21.191Z,3.65
2023-01-20T15:42:50.460Z,3.82
2023-01-20T15:45:18.671Z,3.84
2023-01-20T15:47:47.348Z,3.93
2023-01-20T15:50:17.152Z,3.85
2023-01-20T15:52:44.916Z,3.86
2023-01-20T15:55:15.048Z,3.89
2023-01-20T15:57:42.852Z,3.82
2023-01-20T16:00:17.830Z,3.77
2023-01-20T16:02:45.516Z,3.87
2023-01-20T16:05:15.672Z,3.87
2023-01-20T16:07:44.239Z,3.86
2023-01-20T16:10:17.450Z,3.83
2023-01-20T16:12:45.156Z,3.89
2023-01-20T16:15:17.311Z,3.83
2023-01-20T16:17:44.707Z,3.86
2023-01-20T16:20:19.618Z,3.88
2023-01-20T16:22:47.021Z,3.86
2023-01-20T16:25:15.954Z,3.84
2023-01-20T16:27:43.365Z,3.84
2023-01-20T16:30:15.458Z,3.84
2023-01-20T16:32:46.021Z,3.88
2023-01-20T16:35:14.251Z,3.88
2023-01-20T16:37:42.111Z,3.87
2023-01-20T16:40:12.948Z,3.84
2023-01-20T16:42:41.696Z,3.78
2023-01-20T16:45:20.082Z,3.73
2023-01-20T16:47:47.527Z,3.74
2023-01-20T16:50:15.180Z,3.60
2023-01-20T16:52:42.746Z,3.68
2023-01-20T16:55:13.211Z,3.57
2023-01-20T16:57:42.993Z,3.64
2023-01-20T17:00:11.449Z,3.65
2023-01-20T17:02:39.386Z,3.64
2023-01-20T17:05:08.315Z,3.66
2023-01-20T17:07:36.101Z,3.70
2023-01-20T17:10:03.496Z,3.70
2023-01-20T17:12:30.865Z,3.71
2023-01-20T17:14:59.986Z,3.78
2023-01-20T17:17:27.370Z,3.65
2023-01-20T17:19:54.751Z,3.60
2023-01-20T17:22:22.106Z,3.62
2023-01-20T17:24:49.466Z,3.55
2023-01-20T17:27:16.814Z,3.50
2023-01-20T17:29:44.168Z,3.55
2023-01-20T17:32:12.924Z,3.54
2023-01-20T17:34:40.261Z,3.55
2023-01-20T17:37:07.588Z,3.54
2023-01-20T17:39:34.958Z,3.49
2023-01-20T17:42:02.317Z,3.47
2023-01-20T17:44:29.738Z,3.49
2023-01-20T17:46:57.064Z,3.48
2023-01-20T17:49:25.875Z,3.51
2023-01-20T17:51:53.277Z,3.49
2023-01-20T17:54:20.738Z,3.49
2023-01-20T17:56:48.342Z,3.47
2023-01-20T17:59:15.693Z,3.48
2023-01-20T18:01:44.109Z,3.52
2023-01-20T18:04:11.514Z,3.53
2023-01-20T18:06:40.337Z,3.46
2023-01-20T18:09:08.448Z,3.44
2023-01-20T18:11:37.532Z,3.43
2023-01-20T18:14:05.417Z,3.50
2023-01-20T18:16:34.485Z,3.37
2023-01-20T18:19:02.355Z,3.38
2023-01-20T18:21:31.317Z,3.35
2023-01-20T18:24:00.989Z,3.32
2023-01-20T18:26:30.271Z,3.32
2023-01-20T18:28:59.069Z,3.30
2023-01-20T18:31:27.920Z,3.30
2023-01-20T18:33:56.804Z,3.33
2023-01-20T18:36:26.355Z,3.35
2023-01-20T18:38:55.500Z,3.34
2023-01-20T18:41:25.770Z,3.26
2023-01-20T18:43:53.326Z,3.25
2023-01-20T18:46:21.069Z,3.27
2023-01-20T18:48:48.999Z,3.24
2023-01-20T18:51:20.147Z,3.25
2023-01-20T18:53:54.618Z,3.26
2023-01-20T18:56:22.087Z,3.24
2023-01-20T18:58:51.330Z,3.24
2023-01-20T19:01:21.244Z,3.24
2023-01-20T19:03:49.471Z,3.24
2023-01-20T19:06:18.719Z,3.22
2023-01-20T19:08:48.107Z,3.22
2023-01-20T19:11:17.681Z,3.24
2023-01-20T19:13:45.899Z,3.19
2023-01-20T19:16:14.706Z,3.08
2023-01-20T19:18:43.012Z,3.19
2023-01-20T19:21:12.473Z,3.07
2023-01-20T19:23:40.218Z,3.23
2023-01-20T19:26:09.036Z,2.96
2023-01-20T19:28:37.093Z,3.11
2023-01-20T19:31:06.320Z,3.22
2023-01-20T19:33:36.255Z,3.22
2023-01-20T19:36:06.002Z,3.24
2023-01-20T19:38:34.401Z,3.23
2023-01-20T19:41:05.364Z,3.19
2023-01-20T19:43:32.858Z,3.23
2023-01-20T19:46:02.089Z,3.17
2023-01-20T19:48:29.505Z,2.88
2023-01-20T19:51:02.828Z,3.09
2023-01-20T19:53:30.341Z,3.12
2023-01-20T19:56:01.767Z,3.19
2023-01-20T19:58:29.146Z,3.08
2023-01-20T20:00:56.643Z,3.11
2023-01-20T20:03:24.053Z,3.12
2023-01-20T20:05:51.918Z,3.15
2023-01-20T20:08:20.706Z,3.16
2023-01-20T20:10:48.153Z,3.16
2023-01-20T20:13:15.649Z,3.15
2023-01-20T20:15:43.334Z,3.15
2023-01-20T20:18:11.286Z,3.20
2023-01-20T20:20:38.747Z,3.13
2023-01-20T20:23:06.143Z,3.11
2023-01-20T20:25:37.366Z,3.15
2023-01-20T20:28:06.041Z,3.16
2023-01-20T20:30:33.465Z,3.19
2023-01-20T20:33:01.625Z,3.12
2023-01-20T20:35:29.039Z,3.18
2023-01-20T20:37:56.486Z,3.20
2023-01-20T20:40:25.154Z,3.18
2023-01-20T20:42:53.893Z,3.17
2023-01-20T20:45:21.223Z,3.15
2023-01-20T20:47:48.605Z,3.18
2023-01-20T20:50:16.450Z,3.17
2023-01-20T20:52:46.117Z,3.14
2023-01-20T20:55:13.634Z,3.16
2023-01-20T20:57:41.068Z,3.14
2023-01-20T21:00:11.590Z,3.16
2023-01-20T21:02:39.628Z,3.08
2023-01-20T21:05:07.973Z,3.15
2023-01-20T21:07:35.407Z,3.02
2023-01-20T21:10:04.904Z,3.07
2023-01-20T21:12:32.365Z,3.04
2023-01-20T21:15:04.403Z,3.07
2023-01-20T21:18:01.929Z,3.08
2023-01-20T21:20:31.184Z,3.10
2023-01-20T21:23:19.627Z,3.16
2023-01-20T21:26:18.513Z,3.07
2023-01-20T21:32:16.276Z,3.03
2023-01-20T21:35:11.108Z,2.98
2023-01-20T21:38:25.288Z,2.99
2023-01-20T21:44:50.457Z,3.05
2023-01-20T21:47:30.272Z,3.03
2023-01-20T21:50:40.825Z,2.59
2023-01-20T21:53:38.769Z,2.89
2023-01-20T21:56:22.561Z,2.89
2023-01-20T21:58:50.222Z,3.00
2023-01-20T22:01:17.732Z,3.03
2023-01-20T22:03:45.326Z,3.06
2023-01-20T22:06:14.119Z,3.04
2023-01-20T22:08:41.503Z,3.04
2023-01-20T22:11:10.172Z,3.06
2023-01-20T22:13:37.535Z,3.07
2023-01-20T22:16:06.090Z,3.08
2023-01-20T22:18:33.546Z,3.00
2023-01-20T22:21:02.308Z,3.03
2023-01-20T22:23:32.835Z,3.10
2023-01-20T22:26:00.495Z,3.08
2023-01-20T22:28:28.065Z,2.98
2023-01-20T22:30:55.899Z,3.08
2023-01-20T22:33:23.393Z,3.05
2023-01-20T22:35:50.716Z,3.14
2023-01-20T22:38:18.159Z,3.10
2023-01-20T22:40:46.949Z,3.09
2023-01-20T22:43:14.313Z,3.07
2023-01-20T22:45:41.804Z,3.06
2023-01-20T22:48:09.241Z,3.03
2023-01-20T22:50:36.638Z,3.05
2023-01-20T22:53:03.977Z,3.06
2023-01-20T22:55:31.707Z,3.09
2023-01-20T22:58:01.003Z,3.05
2023-01-20T23:00:28.375Z,3.06
2023-01-20T23:02:55.702Z,3.02
2023-01-20T23:05:23.093Z,3.04
2023-01-20T23:07:50.654Z,3.08
2023-01-20T23:10:32.388Z,3.02
2023-01-20T23:13:04.952Z,3.01
2023-01-20T23:15:33.099Z,3.09
2023-01-20T23:18:00.463Z,3.01
2023-01-20T23:20:27.931Z,3.13
2023-01-20T23:22:55.363Z,3.16
2023-01-20T23:25:22.691Z,3.10
2023-01-20T23:27:50.046Z,3.15
2023-01-20T23:30:19.028Z,3.09
2023-01-20T23:32:52.415Z,3.11
2023-01-20T23:35:19.906Z,3.12
2023-01-20T23:37:49.562Z,3.07
2023-01-20T23:40:18.532Z,3.15
2023-01-20T23:42:46.442Z,3.04
2023-01-20T23:45:14.200Z,3.05
2023-01-20T23:47:42.951Z,3.07
2023-01-20T23:50:11.690Z,3.10
2023-01-20T23:52:39.246Z,2.99
2023-01-20T23:55:07.781Z,3.07
2023-01-20T23:57:35.318Z,3.06
